createdAt,value
2023-01-27T00:02:04.145Z,20.73
2023-01-27T00:04:54.841Z,20.05
2023-01-27T00:07:47.055Z,20.15
2023-01-27T00:10:36.930Z,19.77
2023-01-27T00:13:27.670Z,17.27
2023-01-27T00:16:17.024Z,15.90
2023-01-27T00:19:07.179Z,13.55
2023-01-27T00:22:15.332Z,16.65
2023-01-27T00:25:04.850Z,17.35
2023-01-27T00:27:54.104Z,15.82
2023-01-27T00:30:43.300Z,16.40
2023-01-27T00:33:31.599Z,17.50
2023-01-27T00:36:20.942Z,17.42
2023-01-27T00:39:13.596Z,15.85
2023-01-27T00:42:06.552Z,22.85
2023-01-27T00:45:15.110Z,16.25
2023-01-27T00:48:04.538Z,20.75
2023-01-27T00:50:54.497Z,20.17
2023-01-27T00:53:43.810Z,19.35
2023-01-27T00:56:34.739Z,23.83
2023-01-27T00:59:24.380Z,21.05
2023-01-27T01:02:14.533Z,21.35
2023-01-27T01:05:03.845Z,21.25
2023-01-27T01:07:53.256Z,23.17
2023-01-27T01:10:42.553Z,18.80
2023-01-27T01:13:34.458Z,18.63
2023-01-27T01:16:25.974Z,23.67
2023-01-27T01:19:15.297Z,20.92
2023-01-27T01:22:05.067Z,20.88
2023-01-27T01:24:54.374Z,21.02
2023-01-27T01:27:46.903Z,25.45
2023-01-27T01:30:39.542Z,20.95
2023-01-27T01:33:28.785Z,20.48
2023-01-27T01:36:20.736Z,25.75
2023-01-27T01:39:10.032Z,19.17
2023-01-27T01:41:59.708Z,23.98
2023-01-27T01:44:53.167Z,24.25
2023-01-27T01:47:43.964Z,22.50
2023-01-27T01:50:35.158Z,21.90
2023-01-27T01:53:29.529Z,25.85
2023-01-27T01:56:24.324Z,21.65
2023-01-27T01:59:19.025Z,26.25
2023-01-27T02:02:14.395Z,22.02
2023-01-27T02:05:11.085Z,30.10
2023-01-27T02:08:06.204Z,21.55
2023-01-27T02:10:55.843Z,19.58
2023-01-27T02:13:45.622Z,21.67
2023-01-27T02:16:35.054Z,22.95
2023-01-27T02:19:33.299Z,23.52
2023-01-27T02:22:33.629Z,19.85
2023-01-27T02:25:33.896Z,21.05
2023-01-27T02:28:28.000Z,21.33
2023-01-27T02:31:17.826Z,26.13
2023-01-27T02:34:11.646Z,19.98
2023-01-27T02:37:07.033Z,24.35
2023-01-27T02:39:59.133Z,26.15
2023-01-27T02:42:48.667Z,25.65
2023-01-27T02:45:39.337Z,26.02
2023-01-27T02:48:28.653Z,32.58
2023-01-27T02:51:20.455Z,27.42
2023-01-27T02:54:10.081Z,28.08
2023-01-27T02:56:59.392Z,27.77
2023-01-27T02:59:50.531Z,26.27
2023-01-27T03:02:41.680Z,31.63
2023-01-27T03:05:31.054Z,23.33
2023-01-27T03:08:20.498Z,25.52
2023-01-27T03:11:11.571Z,21.02
2023-01-27T03:14:01.852Z,20.63
2023-01-27T03:17:08.683Z,19.45
2023-01-27T03:19:59.329Z,22.58
2023-01-27T03:22:48.495Z,23.70
2023-01-27T03:25:38.358Z,21.02
2023-01-27T03:28:27.661Z,20.88
2023-01-27T03:31:37.593Z,23.75
2023-01-27T03:34:27.218Z,21.08
2023-01-27T03:37:42.811Z,23.23
2023-01-27T03:40:50.623Z,21.30
2023-01-27T03:43:57.129Z,21.02
2023-01-27T03:46:48.372Z,20.30
2023-01-27T03:49:37.669Z,27.02
2023-01-27T03:52:28.623Z,23.23
2023-01-27T03:55:18.032Z,21.60
2023-01-27T03:58:22.121Z,27.20
2023-01-27T04:01:17.202Z,22.73
2023-01-27T04:04:24.368Z,32.72
2023-01-27T04:07:14.234Z,21.83
2023-01-27T04:10:05.437Z,21.13
2023-01-27T04:12:53.685Z,25.13
2023-01-27T04:15:42.966Z,24.83
2023-01-27T04:18:32.235Z,23.23
2023-01-27T04:21:21.541Z,25.83
2023-01-27T04:24:22.730Z,23.10
2023-01-27T04:27:16.841Z,21.38
2023-01-27T04:30:07.695Z,20.70
2023-01-27T04:32:56.951Z,21.88
2023-01-27T04:35:46.664Z,21.70
2023-01-27T04:38:35.891Z,20.40
2023-01-27T04:41:25.221Z,19.67
2023-01-27T04:44:15.925Z,26.17
2023-01-27T04:47:05.253Z,22.63
2023-01-27T04:49:54.674Z,20.83
2023-01-27T04:52:45.329Z,22.77
2023-01-27T04:55:35.045Z,20.55
2023-01-27T04:58:24.372Z,19.60
2023-01-27T05:01:15.008Z,19.38
2023-01-27T05:04:04.550Z,24.52
2023-01-27T05:06:53.821Z,20.73
2023-01-27T05:09:43.258Z,21.88
2023-01-27T05:12:32.527Z,24.13
2023-01-27T05:15:24.329Z,19.92
2023-01-27T05:18:15.592Z,21.30
2023-01-27T05:21:06.212Z,19.70
2023-01-27T05:23:55.492Z,20.33
2023-01-27T05:26:44.810Z,21.30
2023-01-27T05:29:34.153Z,21.10
2023-01-27T05:32:23.327Z,22.50
2023-01-27T05:35:14.283Z,24.27
2023-01-27T05:38:03.809Z,21.23
2023-01-27T05:40:58.610Z,21.92
2023-01-27T05:43:52.787Z,21.80
2023-01-27T05:46:43.416Z,21.27
2023-01-27T05:49:33.389Z,22.38
2023-01-27T05:52:24.121Z,21.67
2023-01-27T05:55:14.316Z,22.10
2023-01-27T05:58:03.684Z,24.98
2023-01-27T06:00:53.448Z,23.23
2023-01-27T06:03:43.561Z,22.60
2023-01-27T06:06:34.597Z,24.05
2023-01-27T06:09:25.191Z,21.33
2023-01-27T06:12:14.568Z,21.17
2023-01-27T06:15:03.862Z,26.83
2023-01-27T06:17:53.142Z,20.70
2023-01-27T06:20:43.203Z,24.90
2023-01-27T06:23:32.971Z,22.08
2023-01-27T06:26:23.682Z,22.02
2023-01-27T06:29:12.912Z,26.33
2023-01-27T06:32:02.167Z,24.50
2023-01-27T06:34:51.452Z,23.17
2023-01-27T06:37:40.669Z,23.67
2023-01-27T06:40:31.913Z,22.08
2023-01-27T06:43:22.568Z,23.60
2023-01-27T06:46:12.373Z,24.33
2023-01-27T06:49:01.609Z,23.40
2023-01-27T06:51:50.793Z,22.55
2023-01-27T06:54:40.180Z,23.42
2023-01-27T06:57:29.563Z,26.75
2023-01-27T07:00:21.515Z,22.73
2023-01-27T07:06:02.483Z,21.00
2023-01-27T07:08:54.166Z,22.73
2023-01-27T07:11:44.663Z,23.40
2023-01-27T07:14:33.794Z,24.73
2023-01-27T07:17:24.648Z,23.50
2023-01-27T07:20:15.793Z,24.00
2023-01-27T07:23:07.038Z,20.77
2023-01-27T07:25:56.250Z,22.83
2023-01-27T07:28:45.396Z,24.48
2023-01-27T07:31:35.904Z,19.98
2023-01-27T07:34:26.536Z,23.13
2023-01-27T07:37:15.955Z,25.27
2023-01-27T07:40:05.830Z,21.40
2023-01-27T07:42:55.009Z,29.73
2023-01-27T07:45:45.279Z,22.38
2023-01-27T07:48:34.605Z,24.27
2023-01-27T07:51:25.223Z,18.48
2023-01-27T07:54:14.670Z,21.73
2023-01-27T07:57:03.887Z,22.58
2023-01-27T07:59:55.793Z,19.90
2023-01-27T08:02:45.026Z,18.40
2023-01-27T08:05:35.802Z,22.35
2023-01-27T08:08:26.492Z,18.90
2023-01-27T08:11:17.578Z,22.17
2023-01-27T08:14:07.036Z,20.50
2023-01-27T08:16:56.385Z,19.60
2023-01-27T08:19:45.532Z,20.42
2023-01-27T08:22:35.147Z,18.50
2023-01-27T08:25:26.169Z,17.55
2023-01-27T08:28:15.406Z,19.75
2023-01-27T08:31:10.936Z,20.38
2023-01-27T08:34:00.208Z,19.52
2023-01-27T08:36:49.535Z,21.58
2023-01-27T08:39:38.803Z,17.95
2023-01-27T08:42:29.787Z,21.88
2023-01-27T08:45:19.164Z,20.33
2023-01-27T08:48:08.700Z,17.77
2023-01-27T08:51:00.003Z,17.05
2023-01-27T08:53:49.322Z,22.48
2023-01-27T08:56:39.083Z,19.27
2023-01-27T08:59:29.697Z,16.67
2023-01-27T09:02:20.510Z,21.17
2023-01-27T09:05:10.022Z,20.58
2023-01-27T09:07:59.266Z,18.67
2023-01-27T09:10:48.526Z,18.35
2023-01-27T09:13:37.709Z,15.73
2023-01-27T09:16:29.172Z,19.35
2023-01-27T09:19:18.479Z,24.02
2023-01-27T09:22:07.856Z,29.17
2023-01-27T09:24:57.126Z,24.38
2023-01-27T09:27:46.432Z,26.52
2023-01-27T09:30:35.694Z,28.67
2023-01-27T09:33:27.049Z,51.20
2023-01-27T09:36:21.511Z,45.20
2023-01-27T09:39:11.573Z,50.75
2023-01-27T09:42:50.921Z,36.45
2023-01-27T09:46:19.477Z,23.05
2023-01-27T09:49:33.807Z,15.30
2023-01-27T09:52:47.843Z,14.05
2023-01-27T09:55:44.955Z,13.80
2023-01-27T09:58:53.015Z,13.43
2023-01-27T10:01:55.912Z,14.90
2023-01-27T10:05:03.293Z,16.00
2023-01-27T10:08:28.351Z,15.68
2023-01-27T10:11:29.579Z,15.13
2023-01-27T10:14:31.281Z,14.77
2023-01-27T10:17:38.597Z,16.65
2023-01-27T10:20:40.011Z,15.38
2023-01-27T10:23:43.055Z,18.02
2023-01-27T10:26:37.775Z,15.80
2023-01-27T10:29:33.801Z,16.77
2023-01-27T10:32:29.163Z,16.52
2023-01-27T10:35:21.383Z,17.55
2023-01-27T10:38:24.845Z,20.60
2023-01-27T10:44:37.032Z,17.17
2023-01-27T10:47:41.664Z,16.98
2023-01-27T10:50:35.703Z,19.20
2023-01-27T10:53:35.473Z,16.20
2023-01-27T10:56:34.957Z,18.23
2023-01-27T10:59:31.607Z,24.42
2023-01-27T11:02:31.384Z,24.23
2023-01-27T11:05:29.466Z,22.75
2023-01-27T11:08:23.802Z,26.30
2023-01-27T11:11:35.321Z,23.23
2023-01-27T11:14:30.100Z,28.67
2023-01-27T11:17:29.836Z,28.77
2023-01-27T11:20:30.931Z,22.75
2023-01-27T11:23:23.697Z,26.17
2023-01-27T11:26:27.575Z,26.35
2023-01-27T11:29:29.289Z,26.48
2023-01-27T11:32:32.471Z,20.27
2023-01-27T11:35:22.833Z,34.13
2023-01-27T11:38:16.675Z,137.55
2023-01-27T11:41:06.476Z,100.03
2023-01-27T11:43:57.391Z,34.47
2023-01-27T11:46:48.539Z,49.65
2023-01-27T11:49:43.994Z,39.17
2023-01-27T11:52:34.083Z,33.78
2023-01-27T11:55:28.044Z,46.60
2023-01-27T11:58:25.980Z,27.77
2023-01-27T12:01:22.449Z,23.27
2023-01-27T12:04:20.414Z,27.52
2023-01-27T12:07:20.390Z,26.05
2023-01-27T12:10:29.291Z,29.20
2023-01-27T12:13:21.496Z,19.27
2023-01-27T12:16:10.855Z,22.33
2023-01-27T12:19:06.621Z,24.38
2023-01-27T12:21:59.745Z,29.85
2023-01-27T12:27:49.018Z,17.65
2023-01-27T12:30:41.206Z,26.63
2023-01-27T12:33:34.108Z,28.10
2023-01-27T12:36:27.131Z,31.08
2023-01-27T12:39:46.593Z,31.88
2023-01-27T12:42:40.011Z,33.45
2023-01-27T12:45:31.492Z,29.05
2023-01-27T12:48:23.138Z,34.05
2023-01-27T12:51:20.186Z,41.30
2023-01-27T12:54:25.389Z,35.88
2023-01-27T12:57:18.224Z,30.42
2023-01-27T13:00:15.809Z,40.30
2023-01-27T13:03:12.843Z,48.83
2023-01-27T13:06:02.218Z,42.72
2023-01-27T13:08:54.092Z,45.83
2023-01-27T13:11:46.822Z,44.47
2023-01-27T13:14:43.288Z,51.05
2023-01-27T13:17:42.777Z,40.95
2023-01-27T13:20:40.974Z,45.50
2023-01-27T13:23:35.929Z,41.10
2023-01-27T13:26:31.928Z,51.42
2023-01-27T13:29:28.318Z,49.67
2023-01-27T13:32:25.126Z,50.00
2023-01-27T13:35:23.951Z,51.92
2023-01-27T13:38:24.180Z,50.50
2023-01-27T13:41:22.965Z,51.13
2023-01-27T13:44:25.536Z,56.33
2023-01-27T13:47:20.398Z,53.10
2023-01-27T13:50:21.861Z,56.63
2023-01-27T13:53:14.840Z,53.70
2023-01-27T13:56:21.247Z,51.83
2023-01-27T13:59:34.699Z,45.17
2023-01-27T14:03:06.134Z,42.90
2023-01-27T14:06:23.389Z,46.53
2023-01-27T14:09:31.949Z,49.80
2023-01-27T14:12:40.337Z,46.05
2023-01-27T14:15:37.761Z,48.40
2023-01-27T14:18:32.636Z,49.85
2023-01-27T14:21:40.892Z,57.53
2023-01-27T14:24:46.556Z,55.78
2023-01-27T14:27:41.331Z,53.55
2023-01-27T14:30:36.356Z,50.78
2023-01-27T14:33:58.887Z,54.25
2023-01-27T14:36:54.308Z,52.88
2023-01-27T14:39:55.185Z,49.85
2023-01-27T14:42:59.322Z,46.53
2023-01-27T14:45:55.674Z,50.63
2023-01-27T14:49:05.870Z,45.80
2023-01-27T14:52:04.098Z,43.60
2023-01-27T14:55:09.527Z,41.67
2023-01-27T14:58:19.553Z,37.30
2023-01-27T15:01:26.247Z,27.92
2023-01-27T15:04:42.184Z,34.08
2023-01-27T15:07:42.559Z,38.30
2023-01-27T15:10:33.532Z,49.03
2023-01-27T15:13:47.093Z,45.97
2023-01-27T15:20:02.558Z,40.65
2023-01-27T15:23:09.256Z,46.88
2023-01-27T15:26:02.088Z,43.85
2023-01-27T15:28:52.308Z,47.55
2023-01-27T15:31:43.248Z,48.58
2023-01-27T15:34:32.643Z,51.97
2023-01-27T15:37:25.692Z,58.17
2023-01-27T15:40:17.888Z,52.05
2023-01-27T15:43:07.459Z,53.93
2023-01-27T15:45:58.383Z,45.35
2023-01-27T15:48:49.190Z,55.05
2023-01-27T15:51:39.076Z,58.33
2023-01-27T15:54:34.893Z,54.08
2023-01-27T15:57:30.925Z,55.75
2023-01-27T16:00:31.013Z,65.93
2023-01-27T16:03:28.255Z,62.97
2023-01-27T16:06:23.263Z,55.78
2023-01-27T16:09:29.965Z,57.08
2023-01-27T16:12:39.305Z,72.80
2023-01-27T16:15:37.338Z,53.10
2023-01-27T16:18:42.370Z,50.20
2023-01-27T16:21:44.601Z,59.20
2023-01-27T16:24:43.244Z,57.55
2023-01-27T16:27:46.243Z,56.60
2023-01-27T16:30:42.488Z,51.00
2023-01-27T16:33:38.232Z,55.00
2023-01-27T16:36:30.976Z,52.05
2023-01-27T16:39:33.457Z,49.58
2023-01-27T16:42:30.880Z,52.40
2023-01-27T16:45:25.251Z,50.03
2023-01-27T16:48:31.714Z,52.40
2023-01-27T16:51:25.363Z,57.03
2023-01-27T16:54:24.287Z,51.50
2023-01-27T16:57:30.814Z,51.08
2023-01-27T17:00:26.383Z,50.85
2023-01-27T17:03:20.290Z,52.72
2023-01-27T17:06:16.238Z,50.05
2023-01-27T17:09:21.172Z,44.85
2023-01-27T17:12:29.427Z,56.53
2023-01-27T17:15:26.801Z,63.78
2023-01-27T17:18:17.078Z,55.10
2023-01-27T17:21:06.835Z,47.80
2023-01-27T17:24:03.827Z,46.25
2023-01-27T17:27:02.376Z,46.35
2023-01-27T17:30:00.765Z,41.83
2023-01-27T17:32:54.688Z,48.13
2023-01-27T17:35:44.599Z,46.65
2023-01-27T17:38:48.445Z,46.13
2023-01-27T17:41:39.791Z,46.58
2023-01-27T17:44:29.745Z,61.10
2023-01-27T17:47:21.299Z,100.47
2023-01-27T17:50:19.045Z,81.63
2023-01-27T17:53:13.853Z,69.60
2023-01-27T17:56:15.414Z,58.40
2023-01-27T17:59:12.396Z,59.20
2023-01-27T18:02:14.567Z,58.20
2023-01-27T18:05:11.731Z,54.08
2023-01-27T18:08:05.111Z,57.60
2023-01-27T18:10:55.371Z,58.28
2023-01-27T18:13:44.984Z,55.40
2023-01-27T18:16:34.460Z,53.97
2023-01-27T18:19:25.700Z,56.03
2023-01-27T18:22:17.763Z,52.03
2023-01-27T18:25:20.157Z,51.78
2023-01-27T18:28:10.295Z,50.30
2023-01-27T18:30:59.661Z,49.25
2023-01-27T18:33:59.345Z,51.25
2023-01-27T18:36:54.713Z,51.00
2023-01-27T18:39:43.923Z,52.75
2023-01-27T18:42:34.566Z,49.50
2023-01-27T18:45:24.156Z,51.90
2023-01-27T18:48:17.537Z,51.92
2023-01-27T18:51:13.401Z,52.92
2023-01-27T18:54:02.579Z,53.83
2023-01-27T18:56:51.826Z,51.92
2023-01-27T18:59:42.374Z,51.97
2023-01-27T19:02:31.655Z,54.05
2023-01-27T19:05:23.747Z,66.20
2023-01-27T19:08:16.720Z,57.08
2023-01-27T19:11:06.731Z,54.30
2023-01-27T19:13:55.914Z,54.28
2023-01-27T19:16:46.977Z,49.35
2023-01-27T19:19:36.253Z,47.65
2023-01-27T19:22:25.536Z,42.88
2023-01-27T19:25:15.466Z,46.30
2023-01-27T19:28:08.523Z,50.55
2023-01-27T19:30:58.055Z,60.40
2023-01-27T19:33:48.659Z,60.60
2023-01-27T19:36:44.093Z,66.57
2023-01-27T19:39:33.336Z,64.47
2023-01-27T19:42:22.524Z,74.78
2023-01-27T19:45:14.345Z,84.45
2023-01-27T19:48:03.878Z,70.05
2023-01-27T19:50:54.516Z,67.63
2023-01-27T19:53:43.719Z,58.58
2023-01-27T19:56:33.520Z,70.88
2023-01-27T19:59:22.714Z,78.03
2023-01-27T20:02:14.316Z,70.80
2023-01-27T20:05:03.576Z,64.45
2023-01-27T20:07:56.907Z,60.03
2023-01-27T20:10:46.720Z,60.17
2023-01-27T20:13:35.921Z,70.05
2023-01-27T20:16:26.221Z,68.95
2023-01-27T20:19:17.055Z,71.75
2023-01-27T20:22:06.340Z,62.50
2023-01-27T20:24:57.018Z,76.40
2023-01-27T20:27:49.406Z,76.32
2023-01-27T20:30:39.866Z,71.82
2023-01-27T20:33:29.317Z,59.15
2023-01-27T20:36:21.747Z,65.15
2023-01-27T20:39:11.967Z,62.80
2023-01-27T20:42:02.678Z,65.50
2023-01-27T20:44:51.924Z,70.68
2023-01-27T20:47:41.415Z,64.57
2023-01-27T20:50:30.811Z,55.13
2023-01-27T20:53:20.088Z,60.80
2023-01-27T20:56:10.396Z,61.55
2023-01-27T20:59:01.785Z,56.80
2023-01-27T21:01:51.068Z,64.90
2023-01-27T21:04:40.701Z,80.95
2023-01-27T21:07:30.236Z,60.17
2023-01-27T21:10:20.927Z,56.97
2023-01-27T21:13:10.199Z,55.85
2023-01-27T21:16:02.036Z,45.53
2023-01-27T21:18:51.628Z,55.83
2023-01-27T21:21:41.080Z,56.20
2023-01-27T21:24:31.203Z,48.22
2023-01-27T21:27:20.553Z,49.63
2023-01-27T21:30:13.312Z,58.00
2023-01-27T21:33:03.992Z,52.75
2023-01-27T21:35:56.377Z,75.07
2023-01-27T21:38:45.755Z,58.65
2023-01-27T21:41:52.770Z,79.05
2023-01-27T21:44:59.699Z,80.95
2023-01-27T21:47:48.905Z,59.28
2023-01-27T21:50:39.657Z,54.42
2023-01-27T21:53:29.175Z,49.88
2023-01-27T21:56:18.541Z,54.20
2023-01-27T21:59:08.207Z,53.65
2023-01-27T22:01:57.350Z,48.58
2023-01-27T22:04:47.515Z,54.58
2023-01-27T22:07:39.323Z,48.83
2023-01-27T22:10:30.960Z,52.60
2023-01-27T22:13:20.156Z,66.47
2023-01-27T22:16:13.604Z,51.85
2023-01-27T22:19:03.032Z,56.20
2023-01-27T22:21:52.366Z,77.47
2023-01-27T22:24:43.581Z,87.05
2023-01-27T22:27:32.799Z,67.65
2023-01-27T22:30:22.148Z,65.25
2023-01-27T22:33:11.362Z,56.40
2023-01-27T22:36:01.747Z,46.20
2023-01-27T22:38:51.057Z,44.78
2023-01-27T22:41:41.699Z,40.00
2023-01-27T22:44:31.150Z,40.17
2023-01-27T22:47:20.762Z,43.72
2023-01-27T22:50:12.232Z,57.50
2023-01-27T22:53:01.745Z,48.13
2023-01-27T22:55:59.097Z,45.05
2023-01-27T22:58:49.772Z,42.30
2023-01-27T23:01:39.208Z,42.38
2023-01-27T23:04:28.513Z,44.85
2023-01-27T23:07:17.820Z,45.50
2023-01-27T23:10:08.566Z,50.38
2023-01-27T23:12:57.723Z,43.38
2023-01-27T23:15:48.318Z,50.17
2023-01-27T23:18:37.904Z,46.55
2023-01-27T23:21:27.217Z,48.55
2023-01-27T23:24:16.824Z,44.47
2023-01-27T23:27:06.117Z,42.80
2023-01-27T23:29:55.632Z,40.90
2023-01-27T23:32:46.804Z,42.97
2023-01-27T23:35:35.953Z,38.35
2023-01-27T23:38:32.612Z,40.70
2023-01-27T23:41:23.177Z,51.97
2023-01-27T23:44:13.839Z,42.25
2023-01-27T23:47:03.071Z,43.25
2023-01-27T23:49:53.719Z,46.60
2023-01-27T23:52:42.939Z,41.13
2023-01-27T23:55:32.087Z,42.58
2023-01-27T23:58:21.895Z,43.20
